首页
METAR-TAF:

METAR-TAF

机场 :

通孔廷国际机场

德古斯加巴, 洪都拉斯

纬度: 14-03N, 经度: 087-13W, 海拔: 994米

当前天气观测

该预报发布于59分钟前的23:00 UTC
静风
温度 24°C
湿度 54%
气压 1016 hPa
能见度10公里或以上
少量云层高于3200英尺

METAR: MHTG 212300Z 00000KT 9999 FEW032 24/14 Q1016 A3000 NOSIG

时间: 17:59 (23:59 UTC)

预报

该预报发布于1小时和9分钟前的22:50 UTC
预报有效从22日的 00点(UTC)到 22日的 24点(UTC)
风速6节,风向北转东北
能见度10公里或以上
多云层高于2800英尺
成为
从 22日的 05点(UTC)到 22日的 07点(UTC)
风速节,风向
能見度: 8000
少量云层高于700英尺
散云层高于2600英尺
成为
从 22日的 13点(UTC)到 22日的 15点(UTC)
风速8节,风向北转东北
能见度10公里或以上
散云层高于2800英尺
成为
从 22日的 20点(UTC)到 22日的 22点(UTC)
散云层高于2600英尺
少量云层高于2800英尺, 塔状积云.

TAF: MHTG 212250Z 2200/2224 03006KT 9999 BKN028 TX28/2220Z TN17/2212Z BECMG 2205/2207 00000KT 8000 FEW007 SCT026 BECMG 2213/2215 03008KT 9999 SCT028 BECMG 2220/2222 SCT026 FEW028TCU

超过4000个机场的气象观测和天气预报(METAR&TAF报告)。

可查询的气象台以黄色和红色小点在地图上表示。

将鼠标移到小点上方,可查看气象台名称。

然后点击查看天气观测和预报。

如需切换地图:点击带黑十字的绿色按钮放大地图;点击带横线的绿色按钮缩小地图;或者点击绿色箭头查看邻近地区的地图。


METAR-TAF: